MDT,Max TemperatureF,Mean TemperatureF,Min TemperatureF,Max Dew PointF,MeanDew PointF,Min DewpointF,Max Humidity, Mean Humidity, Min Humidity, Max Sea Level PressureIn, Mean Sea Level PressureIn, Min Sea Level PressureIn, Max VisibilityMiles, Mean VisibilityMiles, Min VisibilityMiles, Max Wind SpeedMPH, Mean Wind SpeedMPH, Max Gust SpeedMPH,PrecipitationIn, CloudCover, Events, WindDirDegrees
2012-9-1,89,72,55,46,34,28,38,27,15,30.29,30.22,30.15,10,10,10,17,7,24,0.00,0,,142
2012-9-2,89,74,60,46,43,37,52,34,17,30.26,30.20,30.12,10,10,10,17,10,22,0.00,2,,337
2012-9-3,89,78,66,46,43,37,49,32,17,30.26,30.20,30.15,10,10,10,18,14,25,0.00,2,,332
2012-9-4,89,78,68,39,36,32,35,24,15,30.25,30.19,30.11,10,10,10,15,6,20,0.00,2,,329
2012-9-5,86,77,68,57,38,32,50,27,18,30.22,30.16,30.09,10,10,10,17,9,22,0.00,2,,344
2012-9-6,89,74,59,50,43,37,48,35,20,30.23,30.16,30.09,10,10,10,22,3,17,0.00,2,,232
2012-9-7,87,74,59,57,47,39,77,46,19,30.35,30.19,30.11,10,10,7,22,7,25,0.00,2,Rain-Thunderstorm,231
2012-9-8,68,60,51,46,43,39,67,57,35,30.46,30.38,30.34,10,10,10,24,16,31,0.00,4,,140
2012-9-9,73,60,48,50,43,39,76,60,31,30.39,30.34,30.27,10,10,10,15,3,25,0.00,2,,155
2012-9-10,78,66,53,50,48,45,82,61,32,30.31,30.25,30.14,10,10,10,20,3,25,0.00,3,Rain,210
2012-9-11,78,64,51,57,50,45,100,68,30,30.20,30.18,30.12,10,10,10,22,4,28,0.00,3,,240
2012-9-12,68,62,53,59,55,48,100,89,56,30.30,30.20,30.16,10,10,2,17,3,24,0.06,6,Rain,177
2012-9-13,62,56,50,54,47,41,100,78,45,30.50,30.39,30.29,10,10,4,16,7,,0.01,6,Rain,120
2012-9-14,66,54,41,43,39,36,93,67,32,30.52,30.48,30.39,10,10,10,13,5,,0.00,2,,162
2012-9-15,75,58,41,34,32,30,70,35,21,30.55,30.34,30.23,10,10,10,7,1,,0.00,0,,177
2012-9-16,84,64,44,37,23,9,66,22,6,30.28,30.18,30.06,10,10,10,17,5,25,0.00,0,,301
2012-9-17,80,64,48,39,25,16,71,23,9,30.20,30.13,30.06,10,10,10,21,7,25,0.00,3,,330
2012-9-18,77,60,44,37,31,21,71,34,13,30.35,30.28,30.23,10,10,10,9,3,,0.00,0,,233
2012-9-19,82,63,44,46,24,10,49,22,8,30.32,30.26,30.19,10,10,10,13,3,,0.00,0,,276
2012-9-20,82,63,44,19,14,9,31,14,6,30.28,30.22,30.15,10,10,10,17,4,23,0.00,1,,306
2012-9-21,82,63,44,21,18,16,34,15,8,30.28,30.22,30.17,10,10,10,12,4,20,0.00,0,,319
2012-9-22,84,67,50,28,23,19,30,17,9,30.33,30.28,30.23,10,10,10,12,4,23,0.00,1,,170
2012-9-23,84,68,53,28,26,23,35,19,12,30.36,30.28,30.07,10,10,10,13,9,22,0.00,4,,178
2012-9-24,77,57,37,36,30,25,60,27,18,30.26,30.18,30.11,10,10,10,28,5,12,0.00,5,,306
2012-9-25,75,62,50,45,40,32,71,44,21,30.16,30.10,30.05,10,10,10,28,5,40,0.00,3,Rain,344
2012-9-26,75,60,46,41,37,32,71,40,21,30.18,30.14,30.10,10,10,10,17,6,21,0.00,3,,171
2012-9-27,77,62,48,39,36,32,62,35,19,30.25,30.20,30.13,10,10,10,14,4,,0.00,3,,346
2012-9-28,71,61,51,46,44,41,76,52,33,30.24,30.19,30.14,10,10,10,14,3,,0.00,5,,122
2012-9-29,75,62,48,46,39,32,93,46,21,30.28,30.22,30.14,10,10,10,10,3,17,0.00,3,,350
2012-9-30,77,60,44,39,31,19,71,30,15,30.25,30.18,30.12,10,10,10,14,4,23,0.00,2,,328